メインページ
METAR-TAF:

METAR-TAF

空港 :

ジブラルタル国際空港

ジブラルタル, ジブラルタル

緯度: 36-09N, 経度: 005-21W, 海抜: 5m

現時点の気象観測

当レポートは46分前の06:50(UTC)に作成
東/北東の風 4kt
気温 23°C
湿度 89%
気圧 1018 hPa
視程: 7000m
高度1200ftの雲は散在している
高度1500ftの千切れ雲あり
煙霧

METAR: LXGB 190650Z 06004KT 7000 HZ SCT012 BKN015 23/21 Q1018 BECMG 9999 NSW FEW012 SCT015

時間: 09:36 (07:36 UTC)

予報

当レポートは2時間50分前の04:46(UTC)に作成
予報は19日の 06時(UTC)から 19日の 15時(UTC)まで有効
の風 8kt
視程: 3000m
高度200ftの千切れ雲あり
確率 40% :
19日の 06時(UTC)から 19日の 08時(UTC)まで一時的に
視程: 0500m
高度100ft以下の千切れ雲あり
散在霧
19日の 07時(UTC)から 19日の 09時(UTC)まで徐々に
視程: 6000m
高度1000ftの千切れ雲あり
煙霧
19日の 09時(UTC)から 19日の 11時(UTC)まで徐々に
視程10km以上
高度1200ftの雲はほとんどない
高度1500ftの雲は散在している

TAF: LXGB 190446Z 1906/1915 09008KT 3000 BR BKN002 PROB40 TEMPO 1906/1908 0500 BCFG BKN000 BECMG 1907/1909 6000 HZ BKN010 BECMG 1909/1911 9999 NSW FEW012 SCT015

4,000以上の空港の気象観測と天気予報(METAR報とTAF報)

利用可能な観測所は地図上に黄色い丸と赤い丸で示す。

丸の上にカーソルを重ねると観測所名を参照できる。

次にクリックすると気象観測と天気予報を参照できる。

マップの切り替え:黒色「×」印の緑ボタンをクリックして拡大、「-」印の緑ボタンをクリックして縮小、緑色の三角印をクリックして隣りの地図に切り替え


METAR-TAF: